createdAt,value
2023-04-05T00:01:13.702Z,2.60
2023-04-05T00:02:46.913Z,2.80
2023-04-05T00:04:21.119Z,2.30
2023-04-05T00:05:54.766Z,2.58
2023-04-05T00:09:03.911Z,2.42
2023-04-05T00:10:37.547Z,2.35
2023-04-05T00:12:10.484Z,2.22
2023-04-05T00:13:42.544Z,2.70
2023-04-05T00:15:17.106Z,2.78
2023-04-05T00:16:50.318Z,2.33
2023-04-05T00:18:22.337Z,2.65
2023-04-05T00:19:57.329Z,2.57
2023-04-05T00:21:30.453Z,2.65
2023-04-05T00:23:03.410Z,2.60
2023-04-05T00:24:38.819Z,2.85
2023-04-05T00:26:12.311Z,2.58
2023-04-05T00:27:45.397Z,2.40
2023-04-05T00:29:18.409Z,2.30
2023-04-05T00:30:54.844Z,2.22
2023-04-05T00:32:27.907Z,2.15
2023-04-05T00:34:00.913Z,2.30
2023-04-05T00:35:33.992Z,2.30
2023-04-05T00:37:06.957Z,2.30
2023-04-05T00:38:40.557Z,2.20
2023-04-05T00:40:12.890Z,2.43
2023-04-05T00:41:48.214Z,2.20
2023-04-05T00:43:20.815Z,2.43
2023-04-05T00:44:53.693Z,2.60
2023-04-05T00:46:28.351Z,2.33
2023-04-05T00:48:01.984Z,3.07
2023-04-05T00:49:36.434Z,3.10
2023-04-05T00:51:11.499Z,3.20
2023-04-05T00:52:45.062Z,3.30
2023-04-05T00:54:19.581Z,2.80
2023-04-05T00:55:51.820Z,2.60
2023-04-05T00:57:26.334Z,2.70
2023-04-05T00:58:59.421Z,2.67
2023-04-05T01:00:31.876Z,2.30
2023-04-05T01:02:16.916Z,2.60
2023-04-05T01:03:54.799Z,2.43
2023-04-05T01:05:35.993Z,2.60
2023-04-05T01:07:15.059Z,3.20
2023-04-05T01:08:56.394Z,2.87
2023-04-05T01:10:36.463Z,2.40
2023-04-05T01:12:12.699Z,2.40
2023-04-05T01:13:46.318Z,2.60
2023-04-05T01:15:19.292Z,3.37
2023-04-05T01:16:51.385Z,2.40
2023-04-05T01:18:26.454Z,2.47
2023-04-05T01:20:02.342Z,3.00
2023-04-05T01:22:13.648Z,2.93
2023-04-05T01:23:58.510Z,2.47
2023-04-05T01:26:08.832Z,2.40
2023-04-05T01:28:03.614Z,3.10
2023-04-05T01:29:48.726Z,2.50
2023-04-05T01:31:29.139Z,2.43
2023-04-05T01:33:11.077Z,3.03
2023-04-05T01:34:52.161Z,2.60
2023-04-05T01:36:31.313Z,2.20
2023-04-05T01:38:06.765Z,2.30
2023-04-05T01:39:40.951Z,2.60
2023-04-05T01:41:13.997Z,2.30
2023-04-05T01:42:47.228Z,2.33
2023-04-05T01:44:20.263Z,2.30
2023-04-05T01:45:54.574Z,2.42
2023-04-05T01:47:26.707Z,2.63
2023-04-05T01:48:59.612Z,2.70
2023-04-05T01:50:32.546Z,2.45
2023-04-05T01:52:05.558Z,2.60
2023-04-05T01:53:37.530Z,2.50
2023-04-05T01:55:10.725Z,2.77
2023-04-05T01:56:43.733Z,2.88
2023-04-05T01:58:16.783Z,2.95
2023-04-05T01:59:48.837Z,2.97
2023-04-05T02:01:23.234Z,2.80
2023-04-05T02:02:56.301Z,2.80
2023-04-05T02:04:29.298Z,3.00
2023-04-05T02:06:01.547Z,2.63
2023-04-05T02:07:34.717Z,3.00
2023-04-05T02:09:07.934Z,2.83
2023-04-05T02:10:41.423Z,2.85
2023-04-05T02:12:14.738Z,2.70
2023-04-05T02:13:47.003Z,3.03
2023-04-05T02:15:20.210Z,2.80
2023-04-05T02:16:55.832Z,2.88
2023-04-05T02:18:31.685Z,2.77
2023-04-05T02:20:06.980Z,2.83
2023-04-05T02:21:41.023Z,2.97
2023-04-05T02:23:14.256Z,2.90
2023-04-05T02:24:47.449Z,3.05
2023-04-05T02:26:19.680Z,2.95
2023-04-05T02:27:52.907Z,3.10
2023-04-05T02:29:24.937Z,2.92
2023-04-05T02:30:58.089Z,3.00
2023-04-05T02:32:33.012Z,3.28
2023-04-05T02:34:09.191Z,3.00
2023-04-05T02:35:42.428Z,2.90
2023-04-05T02:37:15.431Z,2.97
2023-04-05T02:38:48.694Z,3.00
2023-04-05T02:40:22.996Z,2.75
2023-04-05T02:41:56.730Z,2.87
2023-04-05T02:43:30.057Z,2.70
2023-04-05T02:46:36.186Z,2.87
2023-04-05T02:48:10.719Z,2.45
2023-04-05T02:49:42.954Z,2.50
2023-04-05T02:51:16.196Z,2.57
2023-04-05T02:52:49.376Z,2.67
2023-04-05T02:54:22.631Z,2.40
2023-04-05T02:55:55.822Z,2.03
2023-04-05T02:57:28.927Z,2.67
2023-04-05T02:59:02.636Z,2.88
2023-04-05T03:00:34.942Z,3.10
2023-04-05T03:02:08.339Z,3.03
2023-04-05T03:05:18.764Z,2.50
2023-04-05T03:06:52.314Z,2.67
2023-04-05T03:08:24.591Z,3.03
2023-04-05T03:09:58.201Z,3.10
2023-04-05T03:11:32.919Z,2.80
2023-04-05T03:13:06.058Z,3.20
2023-04-05T03:14:40.119Z,3.40
2023-04-05T03:16:13.192Z,3.40
2023-04-05T03:17:46.379Z,3.25
2023-04-05T03:19:22.452Z,3.58
2023-04-05T03:20:56.849Z,3.10
2023-04-05T03:22:29.062Z,3.13
2023-04-05T03:24:02.212Z,3.13
2023-04-05T03:25:36.367Z,3.05
2023-04-05T03:27:10.050Z,3.10
2023-04-05T03:28:45.346Z,3.30
2023-04-05T03:30:18.509Z,3.40
2023-04-05T03:31:53.055Z,3.33
2023-04-05T03:33:26.372Z,2.93
2023-04-05T03:34:59.848Z,3.30
2023-04-05T03:36:41.758Z,3.27
2023-04-05T03:38:15.156Z,3.17
2023-04-05T03:41:20.900Z,2.60
2023-04-05T03:42:53.077Z,2.80
2023-04-05T03:44:26.210Z,2.80
2023-04-05T03:45:59.827Z,2.80
2023-04-05T03:47:32.088Z,2.80
2023-04-05T03:49:06.173Z,2.80
2023-04-05T03:50:40.669Z,2.30
2023-04-05T03:52:12.728Z,2.87
2023-04-05T03:53:46.141Z,2.77
2023-04-05T03:55:18.852Z,2.60
2023-04-05T03:56:52.102Z,2.88
2023-04-05T03:58:26.407Z,3.10
2023-04-05T03:59:59.352Z,2.93
2023-04-05T04:01:32.303Z,2.78
2023-04-05T04:03:05.469Z,3.08
2023-04-05T04:04:37.441Z,2.67
2023-04-05T04:06:11.934Z,3.27
2023-04-05T04:07:44.482Z,2.90
2023-04-05T04:09:17.407Z,3.00
2023-04-05T04:10:50.782Z,2.83
2023-04-05T04:12:23.783Z,3.00
2023-04-05T04:13:56.762Z,2.88
2023-04-05T04:15:28.885Z,3.00
2023-04-05T04:17:01.944Z,2.77
2023-04-05T04:18:34.073Z,2.90
2023-04-05T04:20:10.928Z,3.97
2023-04-05T04:21:52.105Z,3.37
2023-04-05T04:23:25.030Z,3.50
2023-04-05T04:24:57.020Z,3.50
2023-04-05T04:26:30.010Z,3.10
2023-04-05T04:28:02.966Z,3.33
2023-04-05T04:29:39.099Z,2.95
2023-04-05T04:31:14.363Z,3.20
2023-04-05T04:32:52.745Z,2.63
2023-04-05T04:34:26.195Z,3.17
2023-04-05T04:37:37.632Z,2.83
2023-04-05T04:39:13.816Z,3.23
2023-04-05T04:40:50.912Z,3.70
2023-04-05T04:42:24.001Z,3.50
2023-04-05T04:43:58.544Z,3.58
2023-04-05T04:45:34.799Z,3.50
2023-04-05T04:47:13.775Z,3.10
2023-04-05T04:48:48.177Z,3.50
2023-04-05T04:50:22.136Z,3.28
2023-04-05T04:51:55.184Z,3.33
2023-04-05T04:53:29.459Z,3.10
2023-04-05T04:55:02.723Z,3.70
2023-04-05T04:56:35.740Z,8.43
2023-04-05T04:58:11.534Z,10.25
2023-04-05T04:59:44.485Z,4.40
2023-04-05T05:01:17.465Z,3.80
2023-04-05T05:02:51.892Z,3.70
2023-04-05T05:04:24.962Z,3.17
2023-04-05T05:05:57.922Z,3.88
2023-04-05T05:07:29.866Z,3.83
2023-04-05T05:09:04.203Z,3.30
2023-04-05T05:10:37.205Z,4.10
2023-04-05T05:12:10.221Z,3.80
2023-04-05T05:13:43.119Z,4.00
2023-04-05T05:15:15.352Z,3.63
2023-04-05T05:16:48.348Z,3.60
2023-04-05T05:18:21.316Z,3.60
2023-04-05T05:19:56.285Z,3.22
2023-04-05T05:21:29.377Z,3.23
2023-04-05T05:23:03.929Z,3.58
2023-04-05T05:24:38.197Z,3.10
2023-04-05T05:26:12.897Z,3.70
2023-04-05T05:27:45.794Z,3.87
2023-04-05T05:29:20.346Z,4.03
2023-04-05T05:30:53.410Z,3.73
2023-04-05T05:32:26.392Z,3.75
2023-04-05T05:33:59.334Z,3.55
2023-04-05T05:35:32.328Z,5.00
2023-04-05T05:37:05.915Z,3.67
2023-04-05T05:38:38.892Z,3.50
2023-04-05T05:40:13.589Z,4.30
2023-04-05T05:41:46.608Z,4.50
2023-04-05T05:43:20.771Z,4.93
2023-04-05T05:44:53.795Z,5.33
2023-04-05T05:46:27.468Z,4.43
2023-04-05T05:48:00.496Z,5.53
2023-04-05T05:49:33.386Z,5.40
2023-04-05T05:51:09.833Z,4.40
2023-04-05T05:52:42.793Z,3.63
2023-04-05T05:54:15.682Z,2.88
2023-04-05T05:55:50.105Z,2.88
2023-04-05T05:57:23.232Z,3.40
2023-04-05T05:58:56.214Z,3.00
2023-04-05T06:00:30.455Z,2.97
2023-04-05T06:02:03.442Z,3.43
2023-04-05T06:03:36.695Z,2.90
2023-04-05T06:05:09.937Z,3.22
2023-04-05T06:06:43.730Z,3.05
2023-04-05T06:08:16.675Z,3.30
2023-04-05T06:09:49.594Z,3.28
2023-04-05T06:11:25.246Z,2.90
2023-04-05T06:12:58.141Z,3.60
2023-04-05T06:14:31.208Z,3.22
2023-04-05T06:16:04.230Z,2.83
2023-04-05T06:17:41.993Z,2.88
2023-04-05T06:19:15.658Z,2.70
2023-04-05T06:20:48.606Z,3.20
2023-04-05T06:22:23.023Z,3.17
2023-04-05T06:23:56.706Z,2.95
2023-04-05T06:25:29.670Z,2.90
2023-04-05T06:27:03.980Z,3.30
2023-04-05T06:28:36.901Z,2.90
2023-04-05T06:30:11.007Z,2.95
2023-04-05T06:31:46.471Z,3.53
2023-04-05T06:33:19.535Z,3.85
2023-04-05T06:34:53.554Z,3.75
2023-04-05T06:36:27.725Z,3.50
2023-04-05T06:38:05.938Z,3.50
2023-04-05T06:39:38.917Z,4.68
2023-04-05T06:41:11.977Z,3.75
2023-04-05T06:42:46.685Z,3.30
2023-04-05T06:44:19.650Z,3.60
2023-04-05T06:45:52.564Z,3.13
2023-04-05T06:47:26.072Z,3.17
2023-04-05T06:49:02.399Z,3.22
2023-04-05T06:50:36.748Z,2.90
2023-04-05T06:52:09.793Z,3.17
2023-04-05T06:53:42.709Z,3.20
2023-04-05T06:55:15.648Z,3.30
2023-04-05T06:56:48.770Z,3.50
2023-04-05T06:58:23.452Z,3.38
2023-04-05T06:59:56.482Z,3.03
2023-04-05T07:01:30.130Z,3.40
2023-04-05T07:03:03.037Z,3.00
2023-04-05T07:04:36.956Z,3.47
2023-04-05T07:06:11.801Z,3.53
2023-04-05T07:07:45.554Z,3.25
2023-04-05T07:09:18.816Z,3.47
2023-04-05T07:10:52.529Z,2.95
2023-04-05T07:12:25.540Z,3.25
2023-04-05T07:13:59.835Z,3.28
2023-04-05T07:15:32.755Z,3.08
2023-04-05T07:17:07.067Z,3.17
2023-04-05T07:18:39.952Z,3.08
2023-04-05T07:20:14.200Z,3.42
2023-04-05T07:21:47.112Z,3.58
2023-04-05T07:23:20.754Z,3.08
2023-04-05T07:24:55.598Z,3.30
2023-04-05T07:26:28.978Z,3.40
2023-04-05T07:29:40.517Z,3.70
2023-04-05T07:31:16.496Z,3.70
2023-04-05T07:32:49.417Z,3.25
2023-04-05T07:34:22.320Z,3.47
2023-04-05T07:35:55.451Z,3.05
2023-04-05T07:37:28.378Z,2.95
2023-04-05T07:39:01.882Z,3.00
2023-04-05T07:42:07.866Z,3.20
2023-04-05T07:43:40.768Z,3.05
2023-04-05T07:45:15.036Z,2.78
2023-04-05T07:46:49.334Z,3.00
2023-04-05T07:48:22.706Z,3.00
2023-04-05T07:49:55.693Z,3.30
2023-04-05T07:51:28.561Z,2.90
2023-04-05T07:53:01.492Z,3.20
2023-04-05T07:54:34.458Z,3.75
2023-04-05T07:56:08.517Z,3.90
2023-04-05T07:57:41.440Z,2.85
2023-04-05T07:59:15.137Z,3.17
2023-04-05T08:00:49.627Z,2.85
2023-04-05T08:02:22.567Z,2.83
2023-04-05T08:03:57.282Z,2.90
2023-04-05T08:05:30.392Z,3.00
2023-04-05T08:07:03.361Z,2.80
2023-04-05T08:08:39.747Z,2.83
2023-04-05T08:10:12.881Z,2.72
2023-04-05T08:11:46.165Z,3.05
2023-04-05T08:13:19.213Z,2.60
2023-04-05T08:14:52.298Z,2.75
2023-04-05T08:16:26.623Z,2.70
2023-04-05T08:17:59.711Z,3.20
2023-04-05T08:19:32.788Z,2.90
2023-04-05T08:21:06.000Z,3.03
2023-04-05T08:22:38.940Z,2.80
2023-04-05T08:24:12.000Z,2.78
2023-04-05T08:25:45.936Z,2.55
2023-04-05T08:27:18.890Z,2.60
2023-04-05T08:28:52.025Z,2.47
2023-04-05T08:30:24.940Z,2.63
2023-04-05T08:31:59.383Z,2.70
2023-04-05T08:33:32.378Z,2.90
2023-04-05T08:35:05.998Z,2.40
2023-04-05T08:36:38.918Z,2.80
2023-04-05T08:38:12.399Z,2.70
2023-04-05T08:41:20.909Z,2.90
2023-04-05T08:42:58.834Z,2.80
2023-04-05T08:44:32.662Z,2.72
2023-04-05T08:46:09.804Z,2.60
2023-04-05T08:47:44.609Z,2.80
2023-04-05T08:49:17.778Z,2.67
2023-04-05T08:50:55.571Z,2.80
2023-04-05T08:52:28.888Z,3.60
2023-04-05T08:54:01.978Z,2.40
2023-04-05T08:55:35.439Z,2.85
2023-04-05T08:58:42.254Z,3.20
2023-04-05T09:00:17.574Z,2.90
2023-04-05T09:01:52.695Z,2.60
2023-04-05T09:03:30.879Z,3.08
2023-04-05T09:05:04.990Z,3.22
2023-04-05T09:06:38.196Z,3.08
2023-04-05T09:08:11.607Z,2.70
2023-04-05T09:11:22.649Z,3.45
2023-04-05T09:12:55.771Z,2.90
2023-04-05T09:14:31.162Z,3.47
2023-04-05T09:16:04.489Z,3.03
2023-04-05T09:20:46.496Z,3.28
2023-04-05T09:23:54.192Z,2.65
2023-04-05T09:25:38.850Z,4.05
2023-04-05T09:27:13.092Z,3.15
2023-04-05T09:28:46.087Z,3.30
2023-04-05T09:30:23.513Z,7.85
2023-04-05T09:31:56.480Z,3.33
2023-04-05T09:33:31.427Z,3.03
2023-04-05T09:35:06.523Z,2.85
2023-04-05T09:36:45.679Z,2.78
2023-04-05T09:38:18.677Z,2.67
2023-04-05T09:40:02.546Z,2.90
2023-04-05T09:43:08.837Z,3.15
2023-04-05T09:44:55.851Z,3.08
2023-04-05T09:46:32.533Z,3.00
2023-04-05T09:48:05.595Z,2.70
2023-04-05T09:49:38.569Z,2.85
2023-04-05T09:51:13.315Z,3.53
2023-04-05T09:52:46.646Z,4.18
2023-04-05T09:55:52.413Z,2.90
2023-04-05T09:57:27.791Z,3.25
2023-04-05T09:59:02.338Z,3.42
2023-04-05T10:00:38.032Z,2.90
2023-04-05T10:02:12.727Z,3.00
2023-04-05T10:03:48.461Z,2.90
2023-04-05T10:05:25.422Z,2.75
2023-04-05T10:07:00.159Z,3.00
2023-04-05T10:08:33.158Z,2.90
2023-04-05T10:10:06.872Z,3.00
2023-04-05T10:11:40.387Z,2.67
2023-04-05T10:13:14.117Z,2.70
2023-04-05T10:14:47.014Z,2.90
2023-04-05T10:16:24.331Z,2.65
2023-04-05T10:18:04.746Z,2.95
2023-04-05T10:19:50.312Z,2.83
2023-04-05T10:21:28.491Z,3.03
2023-04-05T10:23:09.095Z,2.88
2023-04-05T10:24:49.448Z,2.70
2023-04-05T10:26:31.236Z,2.88
2023-04-05T10:28:06.702Z,2.90
2023-04-05T10:29:49.897Z,2.90
2023-04-05T10:31:36.934Z,3.10
2023-04-05T10:33:21.816Z,3.15
2023-04-05T10:35:00.490Z,2.92
2023-04-05T10:36:43.312Z,2.95
2023-04-05T10:38:25.610Z,2.80
2023-04-05T10:40:04.073Z,2.70
2023-04-05T10:41:43.035Z,2.75
2023-04-05T10:43:20.175Z,2.78
2023-04-05T10:44:55.694Z,2.88
2023-04-05T10:46:29.092Z,2.80
2023-04-05T10:49:43.701Z,2.78
2023-04-05T10:51:17.112Z,2.70
2023-04-05T10:52:51.691Z,3.20
2023-04-05T10:54:26.137Z,2.85
2023-04-05T10:55:59.325Z,2.90
2023-04-05T10:57:33.658Z,2.70
2023-04-05T10:59:07.319Z,3.30
2023-04-05T11:00:41.786Z,2.97
2023-04-05T11:02:16.025Z,3.10
2023-04-05T11:03:50.399Z,3.17
2023-04-05T11:05:34.206Z,2.70
2023-04-05T11:08:48.317Z,2.70
2023-04-05T11:10:23.788Z,2.95
2023-04-05T11:11:56.853Z,2.70
2023-04-05T11:13:51.647Z,3.10
2023-04-05T11:15:31.936Z,2.78
2023-04-05T11:17:05.368Z,3.13
2023-04-05T11:18:45.947Z,3.33
2023-04-05T11:20:18.979Z,4.18
2023-04-05T11:22:03.455Z,3.10
2023-04-05T11:24:09.500Z,3.28
2023-04-05T11:25:49.055Z,2.92
2023-04-05T11:27:27.983Z,3.05
2023-04-05T11:29:01.074Z,2.80
2023-04-05T11:30:51.516Z,2.88
2023-04-05T11:32:24.980Z,3.00
2023-04-05T11:34:00.603Z,3.00
2023-04-05T11:35:40.164Z,3.30
2023-04-05T11:37:16.168Z,2.70
2023-04-05T11:38:49.122Z,3.10
2023-04-05T11:40:30.423Z,3.00
2023-04-05T11:42:06.502Z,3.78
2023-04-05T11:43:39.673Z,3.05
2023-04-05T11:45:13.013Z,3.20
2023-04-05T11:48:23.279Z,2.67
2023-04-05T11:49:59.349Z,2.83
2023-04-05T11:51:34.138Z,2.95
2023-04-05T11:53:11.487Z,3.70
2023-04-05T11:54:49.294Z,3.03
2023-04-05T11:56:22.496Z,2.70
2023-04-05T11:57:57.033Z,3.00
2023-04-05T11:59:34.971Z,2.80
2023-04-05T12:01:08.817Z,2.83
2023-04-05T12:02:45.268Z,3.38
2023-04-05T12:04:19.402Z,3.05
2023-04-05T12:05:53.800Z,2.60
2023-04-05T12:07:29.094Z,2.83
2023-04-05T12:09:02.330Z,3.42
2023-04-05T12:10:35.302Z,3.10
2023-04-05T12:12:17.708Z,3.05
2023-04-05T12:13:55.208Z,2.90
2023-04-05T12:15:28.349Z,2.88
2023-04-05T12:17:01.451Z,3.00
2023-04-05T12:18:36.280Z,3.00
2023-04-05T12:20:10.697Z,3.13
2023-04-05T12:21:44.052Z,3.17
2023-04-05T12:24:50.813Z,3.30
2023-04-05T12:27:56.697Z,3.10
2023-04-05T12:29:31.128Z,2.80
2023-04-05T12:31:04.087Z,3.20
2023-04-05T12:32:47.531Z,2.60
2023-04-05T12:34:26.976Z,3.17
2023-04-05T12:36:01.010Z,2.83
2023-04-05T12:37:34.918Z,3.05
2023-04-05T12:39:09.593Z,3.10
2023-04-05T12:40:42.840Z,3.17
2023-04-05T12:42:18.973Z,2.80
2023-04-05T12:43:58.324Z,3.35
2023-04-05T12:45:40.276Z,3.20
2023-04-05T12:47:15.277Z,3.17
2023-04-05T12:48:53.389Z,3.40
2023-04-05T12:50:30.926Z,3.15
2023-04-05T12:52:03.898Z,3.20
2023-04-05T12:53:45.325Z,3.47
2023-04-05T12:55:18.259Z,3.20
2023-04-05T12:56:52.820Z,3.20
2023-04-05T12:58:34.511Z,3.53
2023-04-05T13:00:10.859Z,3.30
2023-04-05T13:01:45.111Z,3.03
2023-04-05T13:03:20.868Z,3.20
2023-04-05T13:04:54.230Z,3.08
2023-04-05T13:06:27.276Z,3.08
2023-04-05T13:08:00.257Z,3.13
2023-04-05T13:09:35.202Z,3.20
2023-04-05T13:11:08.188Z,2.88
2023-04-05T13:12:41.154Z,3.20
2023-04-05T13:14:14.133Z,3.10
2023-04-05T13:15:47.791Z,3.33
2023-04-05T13:17:23.027Z,3.05
2023-04-05T13:18:55.920Z,3.10
2023-04-05T13:20:28.853Z,3.20
2023-04-05T13:22:01.988Z,2.92
2023-04-05T13:23:34.985Z,2.72
2023-04-05T13:25:08.276Z,3.00
2023-04-05T13:26:41.435Z,2.85
2023-04-05T13:28:14.647Z,3.00
2023-04-05T13:29:47.594Z,2.80
2023-04-05T13:31:20.674Z,2.80
2023-04-05T13:32:54.992Z,3.05
2023-04-05T13:34:27.942Z,3.13
2023-04-05T13:36:00.853Z,2.97
2023-04-05T13:37:33.899Z,3.30
2023-04-05T13:39:06.717Z,3.20
2023-04-05T13:40:39.810Z,2.95
2023-04-05T13:42:12.774Z,3.28
2023-04-05T13:43:45.882Z,3.10
2023-04-05T13:45:18.936Z,3.33
2023-04-05T13:46:51.879Z,3.15
2023-04-05T13:48:26.096Z,3.35
2023-04-05T13:49:59.022Z,3.70
2023-04-05T13:51:34.272Z,3.35
2023-04-05T13:53:07.153Z,3.20
2023-04-05T13:54:40.020Z,3.40
2023-04-05T13:56:12.943Z,3.40
2023-04-05T13:57:46.140Z,3.10
2023-04-05T13:59:19.651Z,3.45
2023-04-05T14:00:53.958Z,3.53
2023-04-05T14:02:27.267Z,3.10
2023-04-05T14:05:34.474Z,3.10
2023-04-05T14:07:07.664Z,3.10
2023-04-05T14:08:40.563Z,3.00
2023-04-05T14:10:13.635Z,2.90
2023-04-05T14:11:46.727Z,3.45
2023-04-05T14:13:19.694Z,3.50
2023-04-05T14:14:52.749Z,3.08
2023-04-05T14:16:25.940Z,3.20
2023-04-05T14:17:58.999Z,2.88
2023-04-05T14:19:33.446Z,3.70
2023-04-05T14:21:06.436Z,3.50
2023-04-05T14:22:39.487Z,3.20
2023-04-05T14:24:12.576Z,3.28
2023-04-05T14:25:45.724Z,3.38
2023-04-05T14:27:22.185Z,3.50
2023-04-05T14:28:55.614Z,3.22
2023-04-05T14:32:01.626Z,3.22
2023-04-05T14:33:33.633Z,3.10
2023-04-05T14:35:09.445Z,3.15
2023-04-05T14:36:42.766Z,2.90
2023-04-05T14:39:48.211Z,3.38
2023-04-05T14:41:21.292Z,3.35
2023-04-05T14:42:54.594Z,3.33
2023-04-05T14:44:27.957Z,3.25
2023-04-05T14:47:34.031Z,3.22
2023-04-05T14:49:07.040Z,3.53
2023-04-05T14:50:41.697Z,2.88
2023-04-05T14:52:14.882Z,3.00
2023-04-05T14:53:47.977Z,4.05
2023-04-05T14:55:21.152Z,3.70
2023-04-05T14:56:54.163Z,3.13
2023-04-05T14:58:28.811Z,3.20
2023-04-05T15:00:01.815Z,3.60
2023-04-05T15:01:35.428Z,3.80
2023-04-05T15:03:08.630Z,3.83
2023-04-05T15:04:41.947Z,4.25
2023-04-05T15:06:16.691Z,3.97
2023-04-05T15:07:49.762Z,3.50
2023-04-05T15:09:22.827Z,2.92
2023-04-05T15:10:56.313Z,3.78
2023-04-05T15:14:02.290Z,3.17
2023-04-05T15:15:35.877Z,4.40
2023-04-05T15:17:08.979Z,3.53
2023-04-05T15:18:42.238Z,3.50
2023-04-05T15:20:15.426Z,3.13
2023-04-05T15:21:49.924Z,3.65
2023-04-05T15:23:23.067Z,3.47
2023-04-05T15:24:56.739Z,3.28
2023-04-05T15:26:29.803Z,3.60
2023-04-05T15:28:06.752Z,3.72
2023-04-05T15:29:40.574Z,3.40
2023-04-05T15:31:13.727Z,3.83
2023-04-05T15:32:46.768Z,3.85
2023-04-05T15:34:19.802Z,3.58
2023-04-05T15:35:52.875Z,3.80
2023-04-05T15:37:27.459Z,3.40
2023-04-05T15:39:00.425Z,3.47
2023-04-05T15:40:33.483Z,3.35
2023-04-05T15:42:06.619Z,3.40
2023-04-05T15:43:39.922Z,3.50
2023-04-05T15:46:46.450Z,2.97
2023-04-05T15:48:19.768Z,3.40
2023-04-05T15:49:52.847Z,2.88
2023-04-05T15:51:26.060Z,3.35
2023-04-05T15:53:00.451Z,3.30
2023-04-05T15:54:33.520Z,3.53
2023-04-05T15:56:07.291Z,3.38
2023-04-05T15:57:40.380Z,3.40
2023-04-05T15:59:14.321Z,3.38
2023-04-05T16:00:47.423Z,3.33
2023-04-05T16:02:19.535Z,2.95
2023-04-05T16:03:52.683Z,3.08
2023-04-05T16:05:25.877Z,3.20
2023-04-05T16:06:58.872Z,3.42
2023-04-05T16:08:33.278Z,3.45
2023-04-05T16:10:07.999Z,2.90
2023-04-05T16:11:41.074Z,2.78
2023-04-05T16:13:14.129Z,3.08
2023-04-05T16:14:47.207Z,4.05
2023-04-05T16:16:30.062Z,3.45
2023-04-05T16:18:14.179Z,3.03
2023-04-05T16:19:47.348Z,3.25
2023-04-05T16:21:20.429Z,2.90
2023-04-05T16:22:53.503Z,3.30
2023-04-05T16:24:28.272Z,3.40
2023-04-05T16:26:01.354Z,3.40
2023-04-05T16:27:33.661Z,3.40
2023-04-05T16:29:06.791Z,3.58
2023-04-05T16:30:39.819Z,3.38
2023-04-05T16:32:13.119Z,3.10
2023-04-05T16:35:19.370Z,3.50
2023-04-05T16:36:52.420Z,3.33
2023-04-05T16:38:25.544Z,3.42
2023-04-05T16:40:00.211Z,3.95
2023-04-05T16:41:34.695Z,3.50
2023-04-05T16:43:07.765Z,3.40
2023-04-05T16:44:40.785Z,3.22
2023-04-05T16:46:13.830Z,3.53
2023-04-05T16:47:47.021Z,3.25
2023-04-05T16:49:20.014Z,3.17
2023-04-05T16:50:53.579Z,3.47
2023-04-05T16:52:26.671Z,3.00
2023-04-05T16:53:59.895Z,3.45
2023-04-05T16:55:34.349Z,3.45
2023-04-05T16:57:07.450Z,3.13
2023-04-05T16:58:40.592Z,3.28
2023-04-05T17:00:14.803Z,3.13
2023-04-05T17:01:47.931Z,3.13
2023-04-05T17:03:21.493Z,3.30
2023-04-05T17:04:54.752Z,3.60
2023-04-05T17:06:29.029Z,3.10
2023-04-05T17:08:02.212Z,3.10
2023-04-05T17:09:35.300Z,3.65
2023-04-05T17:11:11.039Z,3.22
2023-04-05T17:12:45.553Z,3.15
2023-04-05T17:14:18.678Z,3.78
2023-04-05T17:15:51.732Z,3.50
2023-04-05T17:17:24.834Z,3.17
2023-04-05T17:18:57.873Z,3.67
2023-04-05T17:20:31.067Z,3.47
2023-04-05T17:22:04.069Z,3.67
2023-04-05T17:23:37.174Z,3.75
2023-04-05T17:25:10.592Z,3.63
2023-04-05T17:29:51.022Z,3.90
2023-04-05T17:31:24.140Z,4.07
2023-04-05T17:32:57.427Z,3.88
2023-04-05T17:34:30.518Z,4.28
2023-04-05T17:36:04.131Z,3.72
2023-04-05T17:37:37.270Z,4.70
2023-04-05T17:39:10.404Z,3.42
2023-04-05T17:40:43.375Z,3.58
2023-04-05T17:42:18.435Z,3.33
2023-04-05T17:43:51.475Z,3.33
2023-04-05T17:45:24.546Z,3.55
2023-04-05T17:47:08.577Z,3.72
2023-04-05T17:48:42.958Z,3.22
2023-04-05T17:50:16.178Z,3.50
2023-04-05T17:51:49.626Z,3.25
2023-04-05T17:54:55.572Z,3.60
2023-04-05T17:56:28.639Z,3.40
2023-04-05T17:58:03.109Z,3.25
2023-04-05T17:59:36.660Z,3.22
2023-04-05T18:01:14.240Z,3.15
2023-04-05T18:02:47.709Z,3.30
2023-04-05T18:04:21.810Z,3.60
2023-04-05T18:05:56.330Z,3.33
2023-04-05T18:07:29.352Z,3.50
2023-04-05T18:09:03.438Z,3.45
2023-04-05T18:10:36.792Z,3.42
2023-04-05T18:12:09.117Z,4.18
2023-04-05T18:13:43.617Z,3.40
2023-04-05T18:15:16.957Z,3.80
2023-04-05T18:18:23.397Z,3.45
2023-04-05T18:19:56.740Z,3.58
2023-04-05T18:23:02.850Z,3.70
2023-04-05T18:24:36.018Z,3.25
2023-04-05T18:26:09.228Z,3.25
2023-04-05T18:27:42.608Z,3.30
2023-04-05T18:30:51.173Z,3.13
2023-04-05T18:32:24.438Z,3.55
2023-04-05T18:33:57.591Z,3.67
2023-04-05T18:35:31.116Z,3.75
2023-04-05T18:37:04.295Z,3.65
2023-04-05T18:38:37.388Z,3.85
2023-04-05T18:40:11.095Z,3.75
2023-04-05T18:41:44.303Z,4.05
2023-04-05T18:43:17.880Z,3.90
2023-04-05T18:44:52.345Z,4.28
2023-04-05T18:46:25.472Z,4.50
2023-04-05T18:48:00.328Z,4.38
2023-04-05T18:49:33.986Z,4.03
2023-04-05T18:51:07.126Z,4.20
2023-04-05T18:52:40.345Z,4.05
2023-04-05T18:54:13.970Z,4.30
2023-04-05T18:55:46.103Z,3.70
2023-04-05T18:57:19.221Z,3.60
2023-04-05T18:58:52.503Z,3.63
2023-04-05T19:00:27.049Z,3.80
2023-04-05T19:02:00.279Z,3.53
2023-04-05T19:03:33.787Z,3.65
2023-04-05T19:06:40.391Z,3.38
2023-04-05T19:08:14.259Z,3.58
2023-04-05T19:09:47.271Z,3.72
2023-04-05T19:11:21.624Z,3.40
2023-04-05T19:12:54.752Z,3.92
2023-04-05T19:14:27.925Z,3.60
2023-04-05T19:16:02.693Z,3.90
2023-04-05T19:17:36.016Z,3.47
2023-04-05T19:20:42.561Z,3.55
2023-04-05T19:22:15.656Z,3.58
2023-04-05T19:23:48.724Z,3.88
2023-04-05T19:25:21.891Z,3.78
2023-04-05T19:26:55.012Z,3.80
2023-04-05T19:28:28.410Z,3.72
2023-04-05T19:31:37.022Z,3.75
2023-04-05T19:33:10.380Z,3.97
2023-04-05T19:36:16.676Z,3.90
2023-04-05T19:37:49.977Z,4.15
2023-04-05T19:39:25.452Z,4.50
2023-04-05T19:40:59.299Z,4.53
2023-04-05T19:42:33.342Z,4.63
2023-04-05T19:44:10.777Z,4.15
2023-04-05T19:45:44.050Z,4.47
2023-04-05T19:47:20.775Z,4.32
2023-04-05T19:48:54.056Z,4.45
2023-04-05T19:50:54.296Z,4.50
2023-04-05T19:52:41.314Z,4.47
2023-04-05T19:54:14.933Z,4.60
2023-04-05T19:55:48.370Z,4.50
2023-04-05T19:58:59.291Z,4.50
2023-04-05T20:00:35.758Z,4.68
2023-04-05T20:02:36.085Z,4.97
2023-04-05T20:04:14.277Z,4.70
2023-04-05T20:06:03.895Z,5.38
2023-04-05T20:07:37.465Z,5.57
2023-04-05T20:09:11.487Z,5.47
2023-04-05T20:10:47.575Z,5.63
2023-04-05T20:12:22.465Z,5.68
2023-04-05T20:13:58.031Z,4.90
2023-04-05T20:15:37.490Z,4.47
2023-04-05T20:17:12.302Z,4.53
2023-04-05T20:18:48.021Z,3.80
2023-04-05T20:20:21.260Z,4.38
2023-04-05T20:21:54.367Z,3.95
2023-04-05T20:23:30.453Z,4.32
2023-04-05T20:25:27.439Z,5.20
2023-04-05T20:27:03.099Z,4.28
2023-04-05T20:28:38.212Z,4.07
2023-04-05T20:30:12.802Z,4.57
2023-04-05T20:31:46.216Z,4.40
2023-04-05T20:35:09.960Z,3.50
2023-04-05T20:36:49.042Z,4.05
2023-04-05T20:38:22.134Z,4.00
2023-04-05T20:39:55.400Z,4.10
2023-04-05T20:41:29.051Z,4.20
2023-04-05T20:43:03.420Z,4.30
2023-04-05T20:44:36.878Z,4.95
2023-04-05T20:46:09.227Z,4.97
2023-04-05T20:47:42.348Z,5.10
2023-04-05T20:49:16.187Z,4.93
2023-04-05T20:50:49.618Z,5.22
2023-04-05T20:53:56.040Z,5.28
2023-04-05T20:55:29.140Z,6.03
2023-04-05T20:57:02.246Z,5.75
2023-04-05T20:58:35.900Z,6.05
2023-04-05T21:00:12.670Z,6.03
2023-04-05T21:01:47.260Z,5.97
2023-04-05T21:03:19.755Z,5.80
2023-04-05T21:04:52.966Z,5.95
2023-04-05T21:06:27.498Z,6.00
2023-04-05T21:07:59.659Z,6.80
2023-04-05T21:09:32.689Z,5.78
2023-04-05T21:11:06.675Z,6.10
2023-04-05T21:12:39.830Z,6.53
2023-04-05T21:14:12.900Z,6.38
2023-04-05T21:15:46.085Z,6.38
2023-04-05T21:17:19.226Z,7.45
2023-04-05T21:18:52.260Z,7.50
2023-04-05T21:20:25.368Z,7.57
2023-04-05T21:22:00.005Z,6.68
2023-04-05T21:23:34.374Z,7.88
2023-04-05T21:25:08.518Z,7.18
2023-04-05T21:26:41.593Z,7.45
2023-04-05T21:28:16.192Z,6.55
2023-04-05T21:29:49.225Z,6.55
2023-04-05T21:31:22.320Z,5.80
2023-04-05T21:32:54.735Z,5.45
2023-04-05T21:34:27.725Z,5.27
2023-04-05T21:36:01.069Z,4.85
2023-04-05T21:39:07.644Z,4.20
2023-04-05T21:40:41.094Z,3.95
2023-04-05T21:42:14.334Z,3.25
2023-04-05T21:43:47.387Z,3.42
2023-04-05T21:45:19.474Z,4.25
2023-04-05T21:46:52.614Z,3.50
2023-04-05T21:48:27.806Z,4.25
2023-04-05T21:50:00.222Z,4.28
2023-04-05T21:51:33.261Z,4.43
2023-04-05T21:53:09.693Z,4.15
2023-04-05T21:54:43.115Z,3.28
2023-04-05T21:57:49.495Z,3.58
2023-04-05T21:59:22.605Z,3.70
2023-04-05T22:00:55.730Z,4.00
2023-04-05T22:02:28.919Z,3.92
2023-04-05T22:04:02.069Z,4.18
2023-04-05T22:05:38.367Z,4.05